sensor_id;sensor_type;location;lat;lon;timestamp;temperature;humidity
5009;DHT22;2523;51.058;6.922;2023-12-28T00:00:46;10.10;99.90
5009;DHT22;2523;51.058;6.922;2023-12-28T00:03:13;10.20;99.90
5009;DHT22;2523;51.058;6.922;2023-12-28T00:05:38;10.20;99.90
5009;DHT22;2523;51.058;6.922;2023-12-28T00:08:04;10.20;99.90
5009;DHT22;2523;51.058;6.922;2023-12-28T00:10:29;10.20;99.90
5009;DHT22;2523;51.058;6.922;2023-12-28T00:12:55;10.20;99.90
5009;DHT22;2523;51.058;6.922;2023-12-28T00:15:21;10.20;99.90
5009;DHT22;2523;51.058;6.922;2023-12-28T00:17:47;10.20;99.90
5009;DHT22;2523;51.058;6.922;2023-12-28T00:20:12;10.20;99.90
5009;DHT22;2523;51.058;6.922;2023-12-28T00:22:38;10.30;99.90
5009;DHT22;2523;51.058;6.922;2023-12-28T00:25:04;10.40;99.90
5009;DHT22;2523;51.058;6.922;2023-12-28T00:27:30;10.40;99.90
5009;DHT22;2523;51.058;6.922;2023-12-28T00:29:56;10.50;99.90
5009;DHT22;2523;51.058;6.922;2023-12-28T00:32:21;10.40;99.90
5009;DHT22;2523;51.058;6.922;2023-12-28T00:34:47;10.40;99.90
5009;DHT22;2523;51.058;6.922;2023-12-28T00:37:12;10.40;99.90
5009;DHT22;2523;51.058;6.922;2023-12-28T00:39:38;10.40;99.90
5009;DHT22;2523;51.058;6.922;2023-12-28T00:42:04;10.40;99.90
5009;DHT22;2523;51.058;6.922;2023-12-28T00:44:30;10.40;99.90
5009;DHT22;2523;51.058;6.922;2023-12-28T00:46:56;10.30;99.90
5009;DHT22;2523;51.058;6.922;2023-12-28T00:49:21;10.40;99.90
5009;DHT22;2523;51.058;6.922;2023-12-28T00:51:47;10.40;99.90
5009;DHT22;2523;51.058;6.922;2023-12-28T00:54:12;10.30;99.90
5009;DHT22;2523;51.058;6.922;2023-12-28T00:56:38;10.30;99.90
5009;DHT22;2523;51.058;6.922;2023-12-28T00:59:03;10.30;99.90
5009;DHT22;2523;51.058;6.922;2023-12-28T01:01:29;10.30;99.90
5009;DHT22;2523;51.058;6.922;2023-12-28T01:03:57;10.30;99.90
5009;DHT22;2523;51.058;6.922;2023-12-28T01:06:23;10.30;99.90
5009;DHT22;2523;51.058;6.922;2023-12-28T01:08:53;10.30;99.90
5009;DHT22;2523;51.058;6.922;2023-12-28T01:11:18;10.30;99.90
5009;DHT22;2523;51.058;6.922;2023-12-28T01:13:44;10.30;99.90
5009;DHT22;2523;51.058;6.922;2023-12-28T01:16:11;10.30;99.90
5009;DHT22;2523;51.058;6.922;2023-12-28T01:18:37;10.40;99.90
5009;DHT22;2523;51.058;6.922;2023-12-28T01:21:03;10.40;99.90
5009;DHT22;2523;51.058;6.922;2023-12-28T01:23:28;10.30;99.90
5009;DHT22;2523;51.058;6.922;2023-12-28T01:25:55;10.40;99.90
5009;DHT22;2523;51.058;6.922;2023-12-28T01:28:21;10.30;99.90
5009;DHT22;2523;51.058;6.922;2023-12-28T01:30:47;10.30;99.90
5009;DHT22;2523;51.058;6.922;2023-12-28T01:33:12;10.30;99.90
5009;DHT22;2523;51.058;6.922;2023-12-28T01:35:38;10.20;99.90
5009;DHT22;2523;51.058;6.922;2023-12-28T01:38:04;10.20;99.90
5009;DHT22;2523;51.058;6.922;2023-12-28T01:40:29;10.20;99.90
5009;DHT22;2523;51.058;6.922;2023-12-28T01:42:55;10.20;99.90
5009;DHT22;2523;51.058;6.922;2023-12-28T01:45:20;10.20;99.90
5009;DHT22;2523;51.058;6.922;2023-12-28T01:47:47;10.20;99.90
5009;DHT22;2523;51.058;6.922;2023-12-28T01:50:13;10.20;99.90
5009;DHT22;2523;51.058;6.922;2023-12-28T01:52:39;10.20;99.90
5009;DHT22;2523;51.058;6.922;2023-12-28T01:55:05;10.20;99.90
5009;DHT22;2523;51.058;6.922;2023-12-28T01:57:32;10.20;99.90
5009;DHT22;2523;51.058;6.922;2023-12-28T01:59:57;10.10;99.90
5009;DHT22;2523;51.058;6.922;2023-12-28T02:02:27;10.10;99.90
5009;DHT22;2523;51.058;6.922;2023-12-28T02:04:53;10.10;99.90
5009;DHT22;2523;51.058;6.922;2023-12-28T02:07:20;10.20;99.90
5009;DHT22;2523;51.058;6.922;2023-12-28T02:09:46;10.10;99.90
5009;DHT22;2523;51.058;6.922;2023-12-28T02:12:11;10.10;99.90
5009;DHT22;2523;51.058;6.922;2023-12-28T02:14:37;10.10;99.90
5009;DHT22;2523;51.058;6.922;2023-12-28T02:17:08;10.20;99.90
5009;DHT22;2523;51.058;6.922;2023-12-28T02:19:43;10.20;99.90
5009;DHT22;2523;51.058;6.922;2023-12-28T02:22:11;10.20;99.90
5009;DHT22;2523;51.058;6.922;2023-12-28T02:27:21;10.20;99.90
5009;DHT22;2523;51.058;6.922;2023-12-28T02:29:46;10.10;99.90
5009;DHT22;2523;51.058;6.922;2023-12-28T02:32:12;10.10;99.90
5009;DHT22;2523;51.058;6.922;2023-12-28T02:34:41;10.10;99.90
5009;DHT22;2523;51.058;6.922;2023-12-28T02:37:08;10.10;99.90
5009;DHT22;2523;51.058;6.922;2023-12-28T02:39:35;10.10;99.90
5009;DHT22;2523;51.058;6.922;2023-12-28T02:42:01;10.00;99.90
5009;DHT22;2523;51.058;6.922;2023-12-28T02:44:26;10.10;99.90
5009;DHT22;2523;51.058;6.922;2023-12-28T02:46:52;10.10;99.90
5009;DHT22;2523;51.058;6.922;2023-12-28T02:49:17;10.10;99.90
5009;DHT22;2523;51.058;6.922;2023-12-28T02:51:43;10.10;99.90
5009;DHT22;2523;51.058;6.922;2023-12-28T02:54:09;10.00;99.90
5009;DHT22;2523;51.058;6.922;2023-12-28T02:56:34;10.00;99.90
5009;DHT22;2523;51.058;6.922;2023-12-28T02:59:00;10.00;99.90
5009;DHT22;2523;51.058;6.922;2023-12-28T03:01:25;10.00;99.90
5009;DHT22;2523;51.058;6.922;2023-12-28T03:03:51;10.00;99.90
5009;DHT22;2523;51.058;6.922;2023-12-28T03:06:16;10.00;99.90
5009;DHT22;2523;51.058;6.922;2023-12-28T03:08:42;10.00;99.90
5009;DHT22;2523;51.058;6.922;2023-12-28T03:11:07;9.90;99.90
5009;DHT22;2523;51.058;6.922;2023-12-28T03:13:33;10.00;99.90
5009;DHT22;2523;51.058;6.922;2023-12-28T03:15:58;9.90;99.90
5009;DHT22;2523;51.058;6.922;2023-12-28T03:18:24;9.90;99.90
5009;DHT22;2523;51.058;6.922;2023-12-28T03:20:51;9.90;99.90
5009;DHT22;2523;51.058;6.922;2023-12-28T03:23:16;9.80;99.90
5009;DHT22;2523;51.058;6.922;2023-12-28T03:25:42;9.80;99.90
5009;DHT22;2523;51.058;6.922;2023-12-28T03:28:07;9.80;99.90
5009;DHT22;2523;51.058;6.922;2023-12-28T03:30:33;9.80;99.90
5009;DHT22;2523;51.058;6.922;2023-12-28T03:32:58;9.80;99.90
5009;DHT22;2523;51.058;6.922;2023-12-28T03:35:24;9.80;99.90
5009;DHT22;2523;51.058;6.922;2023-12-28T03:37:49;9.80;99.90
5009;DHT22;2523;51.058;6.922;2023-12-28T03:40:15;9.80;99.90
5009;DHT22;2523;51.058;6.922;2023-12-28T03:42:40;9.80;99.90
5009;DHT22;2523;51.058;6.922;2023-12-28T03:45:07;9.80;99.90
5009;DHT22;2523;51.058;6.922;2023-12-28T03:47:32;9.80;99.90
5009;DHT22;2523;51.058;6.922;2023-12-28T03:49:58;9.80;99.90
5009;DHT22;2523;51.058;6.922;2023-12-28T03:52:26;9.70;99.90
5009;DHT22;2523;51.058;6.922;2023-12-28T03:54:52;9.70;99.90
5009;DHT22;2523;51.058;6.922;2023-12-28T03:57:18;9.70;99.90
5009;DHT22;2523;51.058;6.922;2023-12-28T03:59:43;9.70;99.90
5009;DHT22;2523;51.058;6.922;2023-12-28T04:02:09;9.60;99.90
5009;DHT22;2523;51.058;6.922;2023-12-28T04:04:34;9.70;99.90
5009;DHT22;2523;51.058;6.922;2023-12-28T04:07:00;9.70;99.90
5009;DHT22;2523;51.058;6.922;2023-12-28T04:09:25;9.70;99.90
5009;DHT22;2523;51.058;6.922;2023-12-28T04:11:51;9.70;99.90
5009;DHT22;2523;51.058;6.922;2023-12-28T04:14:16;9.70;99.90
5009;DHT22;2523;51.058;6.922;2023-12-28T04:16:42;9.70;99.90
5009;DHT22;2523;51.058;6.922;2023-12-28T04:19:08;9.60;99.90
5009;DHT22;2523;51.058;6.922;2023-12-28T04:21:33;9.60;99.90
5009;DHT22;2523;51.058;6.922;2023-12-28T04:23:59;9.70;99.90
5009;DHT22;2523;51.058;6.922;2023-12-28T04:26:24;9.70;99.90
5009;DHT22;2523;51.058;6.922;2023-12-28T04:28:50;9.70;99.90
5009;DHT22;2523;51.058;6.922;2023-12-28T04:31:15;9.70;99.90
5009;DHT22;2523;51.058;6.922;2023-12-28T04:33:41;9.70;99.90
5009;DHT22;2523;51.058;6.922;2023-12-28T04:36:07;9.70;99.90
5009;DHT22;2523;51.058;6.922;2023-12-28T04:38:32;9.70;99.90
5009;DHT22;2523;51.058;6.922;2023-12-28T04:40:59;9.60;99.90
5009;DHT22;2523;51.058;6.922;2023-12-28T04:43:24;9.70;99.90
5009;DHT22;2523;51.058;6.922;2023-12-28T04:45:51;9.60;99.90
5009;DHT22;2523;51.058;6.922;2023-12-28T04:48:16;9.60;99.90
5009;DHT22;2523;51.058;6.922;2023-12-28T04:50:46;9.60;99.90
5009;DHT22;2523;51.058;6.922;2023-12-28T04:53:13;9.60;99.90
5009;DHT22;2523;51.058;6.922;2023-12-28T04:55:38;9.60;99.90
5009;DHT22;2523;51.058;6.922;2023-12-28T04:58:04;9.60;99.90
5009;DHT22;2523;51.058;6.922;2023-12-28T05:00:29;9.60;99.90
5009;DHT22;2523;51.058;6.922;2023-12-28T05:02:55;9.60;99.90
5009;DHT22;2523;51.058;6.922;2023-12-28T05:05:20;9.60;99.90
5009;DHT22;2523;51.058;6.922;2023-12-28T05:07:46;9.50;99.90
5009;DHT22;2523;51.058;6.922;2023-12-28T05:10:11;9.50;99.90
5009;DHT22;2523;51.058;6.922;2023-12-28T05:12:37;9.50;99.90
5009;DHT22;2523;51.058;6.922;2023-12-28T05:15:03;9.50;99.90
5009;DHT22;2523;51.058;6.922;2023-12-28T05:17:28;9.50;99.90
5009;DHT22;2523;51.058;6.922;2023-12-28T05:19:54;9.60;99.90
5009;DHT22;2523;51.058;6.922;2023-12-28T05:22:21;9.60;99.90
5009;DHT22;2523;51.058;6.922;2023-12-28T05:24:46;9.60;99.90
5009;DHT22;2523;51.058;6.922;2023-12-28T05:27:12;9.60;99.90
5009;DHT22;2523;51.058;6.922;2023-12-28T05:29:37;9.60;99.90
5009;DHT22;2523;51.058;6.922;2023-12-28T05:32:04;9.60;99.90
5009;DHT22;2523;51.058;6.922;2023-12-28T05:34:29;9.60;99.90
5009;DHT22;2523;51.058;6.922;2023-12-28T05:36:55;9.50;99.90
5009;DHT22;2523;51.058;6.922;2023-12-28T05:39:20;9.50;99.90
5009;DHT22;2523;51.058;6.922;2023-12-28T05:41:46;9.50;99.90
5009;DHT22;2523;51.058;6.922;2023-12-28T05:44:13;9.50;99.90
5009;DHT22;2523;51.058;6.922;2023-12-28T05:46:39;9.60;99.90
5009;DHT22;2523;51.058;6.922;2023-12-28T05:49:05;9.60;99.90
5009;DHT22;2523;51.058;6.922;2023-12-28T05:51:40;9.60;99.90
5009;DHT22;2523;51.058;6.922;2023-12-28T05:54:09;9.60;99.90
5009;DHT22;2523;51.058;6.922;2023-12-28T05:56:35;9.60;99.90
5009;DHT22;2523;51.058;6.922;2023-12-28T05:59:00;9.60;99.90
5009;DHT22;2523;51.058;6.922;2023-12-28T06:01:26;9.60;99.90
5009;DHT22;2523;51.058;6.922;2023-12-28T06:03:52;9.60;99.90
5009;DHT22;2523;51.058;6.922;2023-12-28T06:06:19;9.60;99.90
5009;DHT22;2523;51.058;6.922;2023-12-28T06:08:44;9.60;99.90
5009;DHT22;2523;51.058;6.922;2023-12-28T06:11:10;9.60;99.90
5009;DHT22;2523;51.058;6.922;2023-12-28T06:13:35;9.60;99.90
5009;DHT22;2523;51.058;6.922;2023-12-28T06:16:04;9.60;99.90
5009;DHT22;2523;51.058;6.922;2023-12-28T06:18:30;9.60;99.90
5009;DHT22;2523;51.058;6.922;2023-12-28T06:20:56;9.70;99.90
5009;DHT22;2523;51.058;6.922;2023-12-28T06:23:22;9.80;99.90
5009;DHT22;2523;51.058;6.922;2023-12-28T06:25:47;9.80;99.90
5009;DHT22;2523;51.058;6.922;2023-12-28T06:28:13;9.70;99.90
5009;DHT22;2523;51.058;6.922;2023-12-28T06:30:38;9.80;99.90
5009;DHT22;2523;51.058;6.922;2023-12-28T06:33:05;9.70;99.90
5009;DHT22;2523;51.058;6.922;2023-12-28T06:35:30;9.70;99.90
5009;DHT22;2523;51.058;6.922;2023-12-28T06:37:56;9.70;99.90
5009;DHT22;2523;51.058;6.922;2023-12-28T06:40:21;9.80;99.90
5009;DHT22;2523;51.058;6.922;2023-12-28T06:42:47;9.80;99.90
5009;DHT22;2523;51.058;6.922;2023-12-28T06:45:12;9.80;99.90
5009;DHT22;2523;51.058;6.922;2023-12-28T06:47:38;9.80;99.90
5009;DHT22;2523;51.058;6.922;2023-12-28T06:50:04;9.80;99.90
5009;DHT22;2523;51.058;6.922;2023-12-28T06:52:30;10.00;99.90
5009;DHT22;2523;51.058;6.922;2023-12-28T06:54:57;9.90;99.90
5009;DHT22;2523;51.058;6.922;2023-12-28T06:57:22;10.00;99.90
5009;DHT22;2523;51.058;6.922;2023-12-28T06:59:48;10.00;99.90
5009;DHT22;2523;51.058;6.922;2023-12-28T07:02:13;10.00;99.90
5009;DHT22;2523;51.058;6.922;2023-12-28T07:04:39;10.00;99.90
5009;DHT22;2523;51.058;6.922;2023-12-28T07:07:04;10.00;99.90
5009;DHT22;2523;51.058;6.922;2023-12-28T07:09:30;10.00;99.90
5009;DHT22;2523;51.058;6.922;2023-12-28T07:11:55;10.00;99.90
5009;DHT22;2523;51.058;6.922;2023-12-28T07:14:21;9.90;99.90
5009;DHT22;2523;51.058;6.922;2023-12-28T07:16:46;9.90;99.90
5009;DHT22;2523;51.058;6.922;2023-12-28T07:19:12;10.00;99.90
5009;DHT22;2523;51.058;6.922;2023-12-28T07:21:37;10.00;99.90
5009;DHT22;2523;51.058;6.922;2023-12-28T07:24:03;10.00;99.90
5009;DHT22;2523;51.058;6.922;2023-12-28T07:26:28;10.00;99.90
5009;DHT22;2523;51.058;6.922;2023-12-28T07:28:54;10.00;99.90
5009;DHT22;2523;51.058;6.922;2023-12-28T07:31:24;10.10;99.90
5009;DHT22;2523;51.058;6.922;2023-12-28T07:33:50;10.50;99.90
5009;DHT22;2523;51.058;6.922;2023-12-28T07:36:15;10.60;99.90
5009;DHT22;2523;51.058;6.922;2023-12-28T07:38:41;10.70;99.90
5009;DHT22;2523;51.058;6.922;2023-12-28T07:41:07;10.40;99.90
5009;DHT22;2523;51.058;6.922;2023-12-28T07:43:32;10.30;99.90
5009;DHT22;2523;51.058;6.922;2023-12-28T07:45:58;10.20;99.90
5009;DHT22;2523;51.058;6.922;2023-12-28T07:48:23;10.20;99.90
5009;DHT22;2523;51.058;6.922;2023-12-28T07:50:48;10.20;99.90
5009;DHT22;2523;51.058;6.922;2023-12-28T07:53:14;10.20;99.90
5009;DHT22;2523;51.058;6.922;2023-12-28T07:55:40;10.20;99.90
5009;DHT22;2523;51.058;6.922;2023-12-28T07:58:05;10.10;99.90
5009;DHT22;2523;51.058;6.922;2023-12-28T08:00:33;10.10;99.90
5009;DHT22;2523;51.058;6.922;2023-12-28T08:03:00;10.20;99.90
5009;DHT22;2523;51.058;6.922;2023-12-28T08:05:25;10.20;99.90
5009;DHT22;2523;51.058;6.922;2023-12-28T08:07:52;10.10;99.90
5009;DHT22;2523;51.058;6.922;2023-12-28T08:10:17;10.10;99.90
5009;DHT22;2523;51.058;6.922;2023-12-28T08:12:43;10.10;99.90
5009;DHT22;2523;51.058;6.922;2023-12-28T08:15:08;10.10;99.90
5009;DHT22;2523;51.058;6.922;2023-12-28T08:17:34;10.10;99.90
5009;DHT22;2523;51.058;6.922;2023-12-28T08:20:00;10.10;99.90
5009;DHT22;2523;51.058;6.922;2023-12-28T08:22:25;10.10;99.90
5009;DHT22;2523;51.058;6.922;2023-12-28T08:24:51;10.10;99.90
5009;DHT22;2523;51.058;6.922;2023-12-28T08:27:16;10.10;99.90
5009;DHT22;2523;51.058;6.922;2023-12-28T08:29:42;10.10;99.90
5009;DHT22;2523;51.058;6.922;2023-12-28T08:32:08;10.10;99.90
5009;DHT22;2523;51.058;6.922;2023-12-28T08:34:33;10.00;99.90
5009;DHT22;2523;51.058;6.922;2023-12-28T08:36:59;10.00;99.90
5009;DHT22;2523;51.058;6.922;2023-12-28T08:39:24;10.00;99.90
5009;DHT22;2523;51.058;6.922;2023-12-28T08:41:50;10.00;99.90
5009;DHT22;2523;51.058;6.922;2023-12-28T08:44:16;10.00;99.90
5009;DHT22;2523;51.058;6.922;2023-12-28T08:46:43;10.10;99.90
5009;DHT22;2523;51.058;6.922;2023-12-28T08:49:09;10.10;99.90
5009;DHT22;2523;51.058;6.922;2023-12-28T08:51:34;10.10;99.90
5009;DHT22;2523;51.058;6.922;2023-12-28T08:54:00;10.10;99.90
5009;DHT22;2523;51.058;6.922;2023-12-28T08:56:25;10.10;99.90
5009;DHT22;2523;51.058;6.922;2023-12-28T08:58:51;10.10;99.90
5009;DHT22;2523;51.058;6.922;2023-12-28T09:01:18;10.20;99.90
5009;DHT22;2523;51.058;6.922;2023-12-28T09:03:43;10.20;99.90
5009;DHT22;2523;51.058;6.922;2023-12-28T09:06:09;10.20;99.90
5009;DHT22;2523;51.058;6.922;2023-12-28T09:08:35;10.20;99.90
5009;DHT22;2523;51.058;6.922;2023-12-28T09:11:00;10.20;99.90
5009;DHT22;2523;51.058;6.922;2023-12-28T09:13:26;10.20;99.90
5009;DHT22;2523;51.058;6.922;2023-12-28T09:15:51;10.20;99.90
5009;DHT22;2523;51.058;6.922;2023-12-28T09:18:17;10.20;99.90
5009;DHT22;2523;51.058;6.922;2023-12-28T09:20:42;10.30;99.90
5009;DHT22;2523;51.058;6.922;2023-12-28T09:23:08;10.30;99.90
5009;DHT22;2523;51.058;6.922;2023-12-28T09:25:36;10.40;99.90
5009;DHT22;2523;51.058;6.922;2023-12-28T09:28:01;10.50;99.90
5009;DHT22;2523;51.058;6.922;2023-12-28T09:30:27;10.50;99.90
5009;DHT22;2523;51.058;6.922;2023-12-28T09:32:52;10.70;99.90
5009;DHT22;2523;51.058;6.922;2023-12-28T09:35:18;10.80;99.90
5009;DHT22;2523;51.058;6.922;2023-12-28T09:37:44;10.80;99.90
5009;DHT22;2523;51.058;6.922;2023-12-28T09:40:10;10.80;99.90
5009;DHT22;2523;51.058;6.922;2023-12-28T09:45:22;10.90;99.90
5009;DHT22;2523;51.058;6.922;2023-12-28T09:47:47;10.90;99.90
5009;DHT22;2523;51.058;6.922;2023-12-28T09:50:17;11.10;99.90
5009;DHT22;2523;51.058;6.922;2023-12-28T09:52:43;11.10;99.90
5009;DHT22;2523;51.058;6.922;2023-12-28T09:55:09;11.30;99.90
5009;DHT22;2523;51.058;6.922;2023-12-28T09:57:35;12.20;99.90
5009;DHT22;2523;51.058;6.922;2023-12-28T10:00:02;12.60;99.90
5009;DHT22;2523;51.058;6.922;2023-12-28T10:02:28;13.20;99.90
5009;DHT22;2523;51.058;6.922;2023-12-28T10:04:55;13.40;99.90
5009;DHT22;2523;51.058;6.922;2023-12-28T10:07:21;13.40;99.90
5009;DHT22;2523;51.058;6.922;2023-12-28T10:09:46;14.40;99.90
5009;DHT22;2523;51.058;6.922;2023-12-28T10:12:12;14.80;99.90
5009;DHT22;2523;51.058;6.922;2023-12-28T10:14:37;15.00;99.90
5009;DHT22;2523;51.058;6.922;2023-12-28T10:17:03;14.50;99.90
5009;DHT22;2523;51.058;6.922;2023-12-28T10:19:29;13.70;99.90
5009;DHT22;2523;51.058;6.922;2023-12-28T10:21:54;13.60;99.90
5009;DHT22;2523;51.058;6.922;2023-12-28T10:24:20;13.10;99.90
5009;DHT22;2523;51.058;6.922;2023-12-28T10:26:46;12.80;99.90
5009;DHT22;2523;51.058;6.922;2023-12-28T10:29:12;12.90;99.90
5009;DHT22;2523;51.058;6.922;2023-12-28T10:31:42;13.20;99.90
5009;DHT22;2523;51.058;6.922;2023-12-28T10:34:08;13.30;99.90
5009;DHT22;2523;51.058;6.922;2023-12-28T10:36:34;13.60;99.90
5009;DHT22;2523;51.058;6.922;2023-12-28T10:39:01;14.60;99.90
5009;DHT22;2523;51.058;6.922;2023-12-28T10:41:30;15.10;99.90
5009;DHT22;2523;51.058;6.922;2023-12-28T10:44:04;15.10;99.90
5009;DHT22;2523;51.058;6.922;2023-12-28T10:46:32;15.40;99.90
5009;DHT22;2523;51.058;6.922;2023-12-28T10:49:16;15.10;99.90
5009;DHT22;2523;51.058;6.922;2023-12-28T10:51:43;16.20;99.90
5009;DHT22;2523;51.058;6.922;2023-12-28T10:56:58;19.40;99.90
5009;DHT22;2523;51.058;6.922;2023-12-28T10:59:47;19.80;99.90
5009;DHT22;2523;51.058;6.922;2023-12-28T11:02:18;18.10;99.90
5009;DHT22;2523;51.058;6.922;2023-12-28T11:04:49;19.10;99.90
5009;DHT22;2523;51.058;6.922;2023-12-28T11:07:17;19.30;99.90
5009;DHT22;2523;51.058;6.922;2023-12-28T11:09:43;19.40;99.90
5009;DHT22;2523;51.058;6.922;2023-12-28T11:12:09;19.10;99.90
5009;DHT22;2523;51.058;6.922;2023-12-28T11:14:42;18.10;99.90
5009;DHT22;2523;51.058;6.922;2023-12-28T11:17:09;17.30;99.90
5009;DHT22;2523;51.058;6.922;2023-12-28T11:19:35;17.00;99.90
5009;DHT22;2523;51.058;6.922;2023-12-28T11:22:03;16.60;99.90
5009;DHT22;2523;51.058;6.922;2023-12-28T11:24:29;16.10;99.90
5009;DHT22;2523;51.058;6.922;2023-12-28T11:26:56;15.40;99.90
5009;DHT22;2523;51.058;6.922;2023-12-28T11:29:23;15.30;99.90
5009;DHT22;2523;51.058;6.922;2023-12-28T11:31:59;15.10;99.90
5009;DHT22;2523;51.058;6.922;2023-12-28T11:34:27;14.90;99.90
5009;DHT22;2523;51.058;6.922;2023-12-28T11:36:55;14.60;99.90
5009;DHT22;2523;51.058;6.922;2023-12-28T11:39:32;13.90;99.90
5009;DHT22;2523;51.058;6.922;2023-12-28T11:42:08;14.10;99.90
5009;DHT22;2523;51.058;6.922;2023-12-28T11:44:41;14.10;99.90
5009;DHT22;2523;51.058;6.922;2023-12-28T11:47:15;14.00;99.90
5009;DHT22;2523;51.058;6.922;2023-12-28T11:49:41;13.70;99.90
5009;DHT22;2523;51.058;6.922;2023-12-28T11:52:08;13.30;99.90
5009;DHT22;2523;51.058;6.922;2023-12-28T11:54:35;13.20;99.90
5009;DHT22;2523;51.058;6.922;2023-12-28T11:57:01;13.50;99.90
5009;DHT22;2523;51.058;6.922;2023-12-28T11:59:26;13.60;99.90
5009;DHT22;2523;51.058;6.922;2023-12-28T12:01:53;13.80;99.90
5009;DHT22;2523;51.058;6.922;2023-12-28T12:04:19;13.60;99.90
5009;DHT22;2523;51.058;6.922;2023-12-28T12:06:45;13.50;99.90
5009;DHT22;2523;51.058;6.922;2023-12-28T12:09:15;13.50;99.90
5009;DHT22;2523;51.058;6.922;2023-12-28T12:11:41;13.40;99.90
5009;DHT22;2523;51.058;6.922;2023-12-28T12:14:10;13.30;99.90
5009;DHT22;2523;51.058;6.922;2023-12-28T12:16:36;13.00;99.90
5009;DHT22;2523;51.058;6.922;2023-12-28T12:19:05;12.90;99.90
5009;DHT22;2523;51.058;6.922;2023-12-28T12:21:33;12.70;99.90
5009;DHT22;2523;51.058;6.922;2023-12-28T12:23:59;12.70;99.90
5009;DHT22;2523;51.058;6.922;2023-12-28T12:26:24;12.60;99.90
5009;DHT22;2523;51.058;6.922;2023-12-28T12:28:51;12.60;99.90
5009;DHT22;2523;51.058;6.922;2023-12-28T12:31:17;12.60;99.90
5009;DHT22;2523;51.058;6.922;2023-12-28T12:33:43;12.60;99.90
5009;DHT22;2523;51.058;6.922;2023-12-28T12:36:08;12.60;99.90
5009;DHT22;2523;51.058;6.922;2023-12-28T12:38:34;12.70;99.90
5009;DHT22;2523;51.058;6.922;2023-12-28T12:41:00;12.70;99.90
5009;DHT22;2523;51.058;6.922;2023-12-28T12:43:25;12.70;99.90
5009;DHT22;2523;51.058;6.922;2023-12-28T12:45:52;12.70;99.90
5009;DHT22;2523;51.058;6.922;2023-12-28T12:48:18;12.70;99.90
5009;DHT22;2523;51.058;6.922;2023-12-28T12:50:44;12.60;99.90
5009;DHT22;2523;51.058;6.922;2023-12-28T12:53:09;12.50;99.90
5009;DHT22;2523;51.058;6.922;2023-12-28T12:55:36;12.50;99.90
5009;DHT22;2523;51.058;6.922;2023-12-28T12:58:05;12.40;99.90
5009;DHT22;2523;51.058;6.922;2023-12-28T13:00:30;12.40;99.90
5009;DHT22;2523;51.058;6.922;2023-12-28T13:02:59;12.50;99.90
5009;DHT22;2523;51.058;6.922;2023-12-28T13:05:25;12.50;99.90
5009;DHT22;2523;51.058;6.922;2023-12-28T13:07:54;12.50;99.90
5009;DHT22;2523;51.058;6.922;2023-12-28T13:10:20;12.60;99.90
5009;DHT22;2523;51.058;6.922;2023-12-28T13:12:46;12.70;99.90
5009;DHT22;2523;51.058;6.922;2023-12-28T13:15:12;12.70;99.90
5009;DHT22;2523;51.058;6.922;2023-12-28T13:17:37;12.70;99.90
5009;DHT22;2523;51.058;6.922;2023-12-28T13:20:06;12.70;99.90
5009;DHT22;2523;51.058;6.922;2023-12-28T13:22:32;12.60;99.90
5009;DHT22;2523;51.058;6.922;2023-12-28T13:24:59;12.50;99.90
5009;DHT22;2523;51.058;6.922;2023-12-28T13:27:24;12.50;99.90
5009;DHT22;2523;51.058;6.922;2023-12-28T13:29:50;12.50;99.90
5009;DHT22;2523;51.058;6.922;2023-12-28T13:32:16;12.60;99.90
5009;DHT22;2523;51.058;6.922;2023-12-28T13:34:41;12.50;99.90
5009;DHT22;2523;51.058;6.922;2023-12-28T13:37:07;12.60;99.90
5009;DHT22;2523;51.058;6.922;2023-12-28T13:39:32;12.40;99.90
5009;DHT22;2523;51.058;6.922;2023-12-28T13:42:06;12.40;99.90
5009;DHT22;2523;51.058;6.922;2023-12-28T13:44:35;12.40;99.90
5009;DHT22;2523;51.058;6.922;2023-12-28T13:47:02;12.40;99.90
5009;DHT22;2523;51.058;6.922;2023-12-28T13:49:28;12.40;99.90
5009;DHT22;2523;51.058;6.922;2023-12-28T13:51:54;12.40;99.90
5009;DHT22;2523;51.058;6.922;2023-12-28T13:54:20;12.40;99.90
5009;DHT22;2523;51.058;6.922;2023-12-28T13:56:46;12.30;99.90
5009;DHT22;2523;51.058;6.922;2023-12-28T13:59:13;12.30;99.90
5009;DHT22;2523;51.058;6.922;2023-12-28T14:01:38;12.20;99.90
5009;DHT22;2523;51.058;6.922;2023-12-28T14:04:04;12.20;99.90
5009;DHT22;2523;51.058;6.922;2023-12-28T14:06:30;12.10;99.90
5009;DHT22;2523;51.058;6.922;2023-12-28T14:08:55;12.10;99.90
5009;DHT22;2523;51.058;6.922;2023-12-28T14:11:25;12.00;99.90
5009;DHT22;2523;51.058;6.922;2023-12-28T14:13:51;12.00;99.90
5009;DHT22;2523;51.058;6.922;2023-12-28T14:16:16;11.90;99.90
5009;DHT22;2523;51.058;6.922;2023-12-28T14:18:42;11.90;99.90
5009;DHT22;2523;51.058;6.922;2023-12-28T14:21:11;11.90;99.90
5009;DHT22;2523;51.058;6.922;2023-12-28T14:23:40;11.80;99.90
5009;DHT22;2523;51.058;6.922;2023-12-28T14:26:12;11.80;99.90
5009;DHT22;2523;51.058;6.922;2023-12-28T14:28:39;11.80;99.90
5009;DHT22;2523;51.058;6.922;2023-12-28T14:31:05;11.70;99.90
5009;DHT22;2523;51.058;6.922;2023-12-28T14:33:30;11.70;99.90
5009;DHT22;2523;51.058;6.922;2023-12-28T14:35:57;11.60;99.90
5009;DHT22;2523;51.058;6.922;2023-12-28T14:38:23;11.60;99.90
5009;DHT22;2523;51.058;6.922;2023-12-28T14:40:48;11.60;99.90
5009;DHT22;2523;51.058;6.922;2023-12-28T14:43:17;11.60;99.90
5009;DHT22;2523;51.058;6.922;2023-12-28T14:45:42;11.60;99.90
5009;DHT22;2523;51.058;6.922;2023-12-28T14:48:08;11.60;99.90
5009;DHT22;2523;51.058;6.922;2023-12-28T14:50:34;11.60;99.90
5009;DHT22;2523;51.058;6.922;2023-12-28T14:53:01;11.70;99.90
5009;DHT22;2523;51.058;6.922;2023-12-28T14:55:26;11.70;99.90
5009;DHT22;2523;51.058;6.922;2023-12-28T14:57:53;11.70;99.90
5009;DHT22;2523;51.058;6.922;2023-12-28T15:00:18;11.60;99.90
5009;DHT22;2523;51.058;6.922;2023-12-28T15:02:44;11.60;99.90
5009;DHT22;2523;51.058;6.922;2023-12-28T15:05:10;11.50;99.90
5009;DHT22;2523;51.058;6.922;2023-12-28T15:07:38;11.50;99.90
5009;DHT22;2523;51.058;6.922;2023-12-28T15:10:04;11.50;99.90
5009;DHT22;2523;51.058;6.922;2023-12-28T15:12:30;11.40;99.90
5009;DHT22;2523;51.058;6.922;2023-12-28T15:14:55;11.40;99.90
5009;DHT22;2523;51.058;6.922;2023-12-28T15:17:21;11.40;99.90
5009;DHT22;2523;51.058;6.922;2023-12-28T15:19:48;11.30;99.90
5009;DHT22;2523;51.058;6.922;2023-12-28T15:22:15;11.30;99.90
5009;DHT22;2523;51.058;6.922;2023-12-28T15:24:41;11.30;99.90
5009;DHT22;2523;51.058;6.922;2023-12-28T15:27:06;11.30;99.90
5009;DHT22;2523;51.058;6.922;2023-12-28T15:29:33;11.20;99.90
5009;DHT22;2523;51.058;6.922;2023-12-28T15:31:59;11.20;99.90
5009;DHT22;2523;51.058;6.922;2023-12-28T15:34:25;11.10;99.90
5009;DHT22;2523;51.058;6.922;2023-12-28T15:36:51;11.20;99.90
5009;DHT22;2523;51.058;6.922;2023-12-28T15:39:17;11.10;99.90
5009;DHT22;2523;51.058;6.922;2023-12-28T15:41:42;11.10;99.90
5009;DHT22;2523;51.058;6.922;2023-12-28T15:44:08;11.10;99.90
5009;DHT22;2523;51.058;6.922;2023-12-28T15:46:35;11.00;99.90
5009;DHT22;2523;51.058;6.922;2023-12-28T15:49:01;11.10;99.90
5009;DHT22;2523;51.058;6.922;2023-12-28T15:51:27;11.00;99.90
5009;DHT22;2523;51.058;6.922;2023-12-28T15:53:52;11.00;99.90
5009;DHT22;2523;51.058;6.922;2023-12-28T15:56:18;11.00;99.90
5009;DHT22;2523;51.058;6.922;2023-12-28T15:58:43;10.90;99.90
5009;DHT22;2523;51.058;6.922;2023-12-28T16:01:09;10.80;99.90
5009;DHT22;2523;51.058;6.922;2023-12-28T16:03:35;10.70;99.90
5009;DHT22;2523;51.058;6.922;2023-12-28T16:06:00;10.60;99.90